createdAt,value
2022-08-08T00:00:53.014Z,101891.00
2022-08-08T00:02:50.221Z,101887.69
2022-08-08T00:05:44.064Z,101882.09
2022-08-08T00:08:49.195Z,101878.38
2022-08-08T00:11:46.964Z,101884.16
2022-08-08T00:14:59.872Z,101885.19
2022-08-08T00:18:03.538Z,101881.66
2022-08-08T00:20:56.380Z,101874.88
2022-08-08T00:23:51.163Z,101871.94
2022-08-08T00:26:40.114Z,101885.28
2022-08-08T00:29:17.226Z,101874.00
2022-08-08T00:32:16.410Z,101879.38
2022-08-08T00:35:20.360Z,101882.44
2022-08-08T00:38:16.739Z,101878.09
2022-08-08T00:41:45.074Z,101874.22
2022-08-08T00:45:02.952Z,101870.25
2022-08-08T00:48:29.229Z,101877.66
2022-08-08T00:51:21.521Z,101881.75
2022-08-08T00:54:17.567Z,101884.66
2022-08-08T00:57:35.993Z,101875.34
2022-08-08T01:00:37.924Z,101879.56
2022-08-08T01:04:09.159Z,101876.34
2022-08-08T01:07:12.132Z,101878.56
2022-08-08T01:10:32.126Z,101875.16
2022-08-08T01:13:43.698Z,101869.56
2022-08-08T01:17:01.467Z,101864.84
2022-08-08T01:20:14.968Z,101863.81
2022-08-08T01:24:05.326Z,101856.94
2022-08-08T01:26:55.002Z,101859.97
2022-08-08T01:30:11.279Z,101861.19
2022-08-08T01:33:16.231Z,101857.88
2022-08-08T01:36:50.770Z,101862.59
2022-08-08T01:39:57.585Z,101856.69
2022-08-08T01:43:21.925Z,101854.06
2022-08-08T01:46:30.359Z,101853.56
2022-08-08T01:49:22.886Z,101856.66
2022-08-08T01:53:01.781Z,101865.44
2022-08-08T01:56:30.924Z,101867.22
2022-08-08T01:59:19.028Z,101860.03
2022-08-08T02:02:41.899Z,101856.13
2022-08-08T02:05:56.632Z,101858.81
2022-08-08T02:08:56.649Z,101869.97
2022-08-08T02:11:59.794Z,101866.19
2022-08-08T02:15:11.262Z,101869.66
2022-08-08T02:18:10.267Z,101868.50
2022-08-08T02:21:26.540Z,101867.31
2022-08-08T02:24:09.832Z,101866.97
2022-08-08T02:27:07.311Z,101871.00
2022-08-08T02:30:01.770Z,101871.91
2022-08-08T02:32:44.375Z,101872.22
2022-08-08T02:36:03.734Z,101877.38
2022-08-08T02:39:40.706Z,101877.13
2022-08-08T02:42:41.493Z,101881.38
2022-08-08T02:45:26.647Z,101877.56
2022-08-08T02:48:30.057Z,101880.72
2022-08-08T02:51:55.011Z,101883.56
2022-08-08T02:55:00.144Z,101885.75
2022-08-08T02:58:09.642Z,101889.81
2022-08-08T03:01:20.812Z,101886.72
2022-08-08T03:05:02.763Z,101888.28
2022-08-08T03:08:07.060Z,101889.59
2022-08-08T03:11:13.981Z,101888.50
2022-08-08T03:16:02.682Z,101888.00
2022-08-08T03:17:10.341Z,101889.97
2022-08-08T03:20:08.252Z,101881.78
2022-08-08T03:22:56.326Z,101887.59
2022-08-08T03:25:35.685Z,101881.31
2022-08-08T03:28:32.219Z,101893.94
2022-08-08T03:31:13.698Z,101889.78
2022-08-08T03:33:54.590Z,101891.38
2022-08-08T03:36:27.563Z,101890.31
2022-08-08T03:39:15.179Z,101893.75
2022-08-08T03:42:13.092Z,101889.13
2022-08-08T03:44:35.285Z,101896.03
2022-08-08T03:47:07.124Z,101895.94
2022-08-08T03:50:00.589Z,101893.59
2022-08-08T03:52:32.053Z,101896.81
2022-08-08T03:55:19.700Z,101900.88
2022-08-08T03:58:32.186Z,101897.19
2022-08-08T04:00:56.528Z,101899.03
2022-08-08T04:03:59.786Z,101898.00
2022-08-08T04:06:22.061Z,101901.03
2022-08-08T04:08:50.192Z,101897.59
2022-08-08T04:11:23.399Z,101895.81
2022-08-08T04:14:04.272Z,101899.19
2022-08-08T04:16:40.968Z,101904.22
2022-08-08T04:19:25.146Z,101915.41
2022-08-08T04:21:54.207Z,101915.16
2022-08-08T04:24:29.226Z,101920.28
2022-08-08T04:26:59.881Z,101917.41
2022-08-08T04:29:33.161Z,101916.09
2022-08-08T04:32:06.886Z,101915.47
2022-08-08T04:34:49.471Z,101923.16
2022-08-08T04:37:26.373Z,101924.50
2022-08-08T04:40:06.652Z,101927.84
2022-08-08T04:42:36.948Z,101921.03
2022-08-08T04:45:06.483Z,101920.78
2022-08-08T04:47:36.467Z,101925.56
2022-08-08T04:50:23.663Z,101927.56
2022-08-08T04:53:00.817Z,101929.75
2022-08-08T04:55:47.343Z,101935.16
2022-08-08T04:58:21.724Z,101927.31
2022-08-08T05:00:49.851Z,101922.72
2022-08-08T05:03:18.688Z,101929.72
2022-08-08T05:06:13.462Z,101928.25
2022-08-08T05:08:51.639Z,101936.47
2022-08-08T05:11:24.635Z,101931.63
2022-08-08T05:14:00.765Z,101930.19
2022-08-08T05:16:51.209Z,101927.50
2022-08-08T05:20:11.495Z,101935.31
2022-08-08T05:22:09.994Z,101937.22
2022-08-08T05:24:38.855Z,101937.31
2022-08-08T05:27:07.853Z,101935.84
2022-08-08T05:29:36.833Z,101940.38
2022-08-08T05:32:09.378Z,101943.88
2022-08-08T05:34:51.257Z,101943.81
2022-08-08T05:37:49.097Z,101935.22
2022-08-08T05:40:17.942Z,101932.88
2022-08-08T05:42:54.531Z,101943.00
2022-08-08T05:45:30.822Z,101941.34
2022-08-08T05:48:08.286Z,101940.09
2022-08-08T05:50:39.042Z,101949.78
2022-08-08T05:53:53.941Z,101955.22
2022-08-08T05:56:07.783Z,101954.31
2022-08-08T05:58:53.777Z,101952.16
2022-08-08T06:01:55.874Z,101951.34
2022-08-08T06:04:22.411Z,101946.53
2022-08-08T06:07:00.637Z,101949.03
2022-08-08T06:09:59.943Z,101948.78
2022-08-08T06:12:29.642Z,101950.69
2022-08-08T06:15:03.041Z,101950.91
2022-08-08T06:17:51.436Z,101952.72
2022-08-08T06:20:26.561Z,101953.09
2022-08-08T06:22:56.155Z,101946.09
2022-08-08T06:25:33.411Z,101955.06
2022-08-08T06:28:18.318Z,101948.88
2022-08-08T06:30:55.547Z,101953.63
2022-08-08T06:33:37.282Z,101964.41
2022-08-08T06:36:53.164Z,101955.69
2022-08-08T06:39:22.542Z,101957.56
2022-08-08T06:41:56.683Z,101956.63
2022-08-08T06:44:26.433Z,101957.28
2022-08-08T06:46:59.292Z,101951.75
2022-08-08T06:49:54.804Z,101955.16
2022-08-08T06:52:17.819Z,101951.41
2022-08-08T06:54:48.718Z,101940.13
2022-08-08T06:57:16.576Z,101947.81
2022-08-08T07:00:03.772Z,101950.47
2022-08-08T07:02:36.486Z,101938.06
2022-08-08T07:05:20.282Z,101944.63
2022-08-08T07:07:57.153Z,101950.91
2022-08-08T07:10:26.451Z,101952.28
2022-08-08T07:13:04.754Z,101945.88
2022-08-08T07:16:04.370Z,101950.78
2022-08-08T07:19:08.648Z,101950.81
2022-08-08T07:22:05.581Z,101944.56
2022-08-08T07:25:02.400Z,101940.47
2022-08-08T07:28:01.837Z,101943.06
2022-08-08T07:30:31.604Z,101951.41
2022-08-08T07:33:01.272Z,101952.41
2022-08-08T07:35:30.971Z,101954.00
2022-08-08T07:38:09.666Z,101955.38
2022-08-08T07:40:43.517Z,101961.31
2022-08-08T07:43:13.605Z,101954.09
2022-08-08T07:46:05.401Z,101948.09
2022-08-08T07:48:32.085Z,101940.69
2022-08-08T07:51:02.652Z,101948.31
2022-08-08T07:54:02.481Z,101950.19
2022-08-08T07:56:53.375Z,101943.28
2022-08-08T07:59:23.623Z,101936.72
2022-08-08T08:02:34.951Z,101945.97
2022-08-08T08:05:00.828Z,101943.66
2022-08-08T08:07:38.839Z,101946.06
2022-08-08T08:10:12.751Z,101948.47
2022-08-08T08:12:45.406Z,101948.06
2022-08-08T08:15:18.488Z,101942.31
2022-08-08T08:17:55.488Z,101945.56
2022-08-08T08:20:30.650Z,101947.75
2022-08-08T08:22:58.327Z,101941.53
2022-08-08T08:25:42.350Z,101933.78
2022-08-08T08:28:17.134Z,101936.03
2022-08-08T08:30:53.579Z,101942.28
2022-08-08T08:33:21.424Z,101947.09
2022-08-08T08:36:20.454Z,101939.19
2022-08-08T08:38:49.383Z,101946.81
2022-08-08T08:41:22.327Z,101946.97
2022-08-08T08:43:52.166Z,101937.78
2022-08-08T08:46:20.414Z,101942.41
2022-08-08T08:48:55.235Z,101937.13
2022-08-08T08:51:33.528Z,101941.09
2022-08-08T08:54:03.564Z,101940.75
2022-08-08T08:56:34.456Z,101934.84
2022-08-08T08:59:09.116Z,101936.19
2022-08-08T09:01:45.697Z,101931.72
2022-08-08T09:04:30.297Z,101937.19
2022-08-08T09:07:13.013Z,101937.63
2022-08-08T09:09:48.066Z,101936.63
2022-08-08T09:12:25.514Z,101930.31
2022-08-08T09:14:57.972Z,101929.66
2022-08-08T09:17:40.785Z,101932.47
2022-08-08T09:21:56.514Z,101939.44
2022-08-08T09:23:00.336Z,101938.28
2022-08-08T09:25:35.885Z,101936.59
2022-08-08T09:28:37.216Z,101939.56
2022-08-08T09:31:42.738Z,101942.75
2022-08-08T09:34:32.678Z,101937.84
2022-08-08T09:37:57.091Z,101937.06
2022-08-08T09:40:10.996Z,101933.03
2022-08-08T09:42:51.583Z,101933.81
2022-08-08T09:46:00.911Z,101928.53
2022-08-08T09:48:36.279Z,101928.91
2022-08-08T09:51:06.196Z,101930.66
2022-08-08T09:54:09.661Z,101929.13
2022-08-08T09:56:47.156Z,101938.09
2022-08-08T10:00:01.995Z,101923.91
2022-08-08T10:02:24.818Z,101926.09
2022-08-08T10:04:52.834Z,101919.00
2022-08-08T10:07:24.099Z,101912.09
2022-08-08T10:09:59.234Z,101913.97
2022-08-08T10:12:53.321Z,101913.50
2022-08-08T10:15:36.184Z,101914.56
2022-08-08T10:18:10.646Z,101909.78
2022-08-08T10:21:23.138Z,101904.75
2022-08-08T10:23:58.885Z,101905.34
2022-08-08T10:26:57.071Z,101907.22
2022-08-08T10:30:01.420Z,101908.34
2022-08-08T10:32:34.385Z,101900.63
2022-08-08T10:35:20.633Z,101906.84
2022-08-08T10:38:05.840Z,101902.69
2022-08-08T10:40:38.995Z,101908.13
2022-08-08T10:43:09.769Z,101900.94
2022-08-08T10:45:56.275Z,101892.22
2022-08-08T10:48:57.013Z,101906.13
2022-08-08T10:51:47.537Z,101899.94
2022-08-08T10:54:26.909Z,101901.06
2022-08-08T10:57:08.835Z,101902.16
2022-08-08T10:59:39.892Z,101900.97
2022-08-08T11:02:12.109Z,101895.13
2022-08-08T11:04:53.160Z,101891.50
2022-08-08T11:08:31.217Z,101893.53
2022-08-08T11:10:28.676Z,101893.81
2022-08-08T11:13:28.092Z,101891.09
2022-08-08T11:16:07.793Z,101887.44
2022-08-08T11:18:39.881Z,101890.34
2022-08-08T11:21:10.533Z,101882.84
2022-08-08T11:24:02.312Z,101901.91
2022-08-08T11:26:34.312Z,101896.38
2022-08-08T11:29:07.655Z,101885.56
2022-08-08T11:31:51.916Z,101883.41
2022-08-08T11:34:22.893Z,101874.13
2022-08-08T11:36:58.589Z,101884.97
2022-08-08T11:39:27.439Z,101883.09
2022-08-08T11:42:09.195Z,101879.50
2022-08-08T11:44:38.322Z,101884.78
2022-08-08T11:47:12.911Z,101880.06
2022-08-08T11:49:45.532Z,101890.25
2022-08-08T11:52:18.557Z,101887.28
2022-08-08T11:54:54.874Z,101889.50
2022-08-08T11:57:35.003Z,101887.94
2022-08-08T12:00:07.580Z,101887.03
2022-08-08T12:02:51.403Z,101877.13
2022-08-08T12:05:22.917Z,101879.53
2022-08-08T12:07:55.770Z,101884.22
2022-08-08T12:10:28.208Z,101882.00
2022-08-08T12:13:05.397Z,101881.69
2022-08-08T12:15:43.053Z,101880.88
2022-08-08T12:18:20.773Z,101881.69
2022-08-08T12:20:54.966Z,101883.53
2022-08-08T12:23:40.110Z,101884.63
2022-08-08T12:26:16.850Z,101871.28
2022-08-08T12:28:57.179Z,101870.84
2022-08-08T12:31:39.096Z,101880.53
2022-08-08T12:34:57.581Z,101880.84
2022-08-08T12:37:39.981Z,101885.56
2022-08-08T12:40:22.868Z,101871.34
2022-08-08T12:42:53.262Z,101885.03
2022-08-08T12:45:58.956Z,101885.00
2022-08-08T12:48:37.847Z,101883.00
2022-08-08T12:51:11.208Z,101876.00
2022-08-08T12:53:57.606Z,101886.69
2022-08-08T12:56:38.404Z,101875.75
2022-08-08T12:59:16.143Z,101872.56
2022-08-08T13:01:55.132Z,101874.81
2022-08-08T13:04:32.845Z,101872.09
2022-08-08T13:07:11.860Z,101872.78
2022-08-08T13:10:01.962Z,101874.22
2022-08-08T13:12:47.004Z,101872.88
2022-08-08T13:15:19.500Z,101872.44
2022-08-08T13:18:07.900Z,101877.31
2022-08-08T13:20:44.627Z,101872.34
2022-08-08T13:23:30.082Z,101870.75
2022-08-08T13:26:04.128Z,101871.59
2022-08-08T13:28:32.734Z,101870.97
2022-08-08T13:31:05.159Z,101874.72
2022-08-08T13:33:42.607Z,101870.28
2022-08-08T13:36:11.298Z,101870.25
2022-08-08T13:38:41.838Z,101868.19
2022-08-08T13:41:16.053Z,101875.91
2022-08-08T13:43:47.305Z,101881.56
2022-08-08T13:46:27.152Z,101876.84
2022-08-08T13:50:33.245Z,101871.38
2022-08-08T13:52:09.465Z,101870.84
2022-08-08T13:54:44.347Z,101881.94
2022-08-08T13:57:17.241Z,101875.03
2022-08-08T13:59:49.175Z,101878.00
2022-08-08T14:02:32.995Z,101871.38
2022-08-08T14:05:19.881Z,101877.94
2022-08-08T14:07:52.331Z,101877.41
2022-08-08T14:10:33.823Z,101874.69
2022-08-08T14:13:30.783Z,101874.00
2022-08-08T14:16:04.680Z,101870.31
2022-08-08T14:18:52.058Z,101882.00
2022-08-08T14:21:31.297Z,101880.72
2022-08-08T14:24:10.490Z,101880.69
2022-08-08T14:26:46.395Z,101881.53
2022-08-08T14:29:28.785Z,101885.16
2022-08-08T14:32:10.564Z,101880.84
2022-08-08T14:34:42.372Z,101887.94
2022-08-08T14:37:12.853Z,101883.84
2022-08-08T14:40:06.776Z,101882.78
2022-08-08T14:42:55.177Z,101883.84
2022-08-08T14:46:01.931Z,101881.16
2022-08-08T14:48:34.942Z,101876.25
2022-08-08T14:51:07.602Z,101875.41
2022-08-08T14:53:54.569Z,101873.19
2022-08-08T14:56:25.715Z,101879.09
2022-08-08T14:58:54.688Z,101875.81
2022-08-08T15:01:40.922Z,101879.94
2022-08-08T15:04:11.057Z,101871.59
2022-08-08T15:06:39.120Z,101872.78
2022-08-08T15:09:09.554Z,101876.38
2022-08-08T15:11:43.274Z,101873.94
2022-08-08T15:14:15.070Z,101871.44
2022-08-08T15:16:42.800Z,101879.94
2022-08-08T15:19:11.712Z,101873.75
2022-08-08T15:21:44.842Z,101882.69
2022-08-08T15:24:14.480Z,101877.66
2022-08-08T15:26:46.736Z,101874.38
2022-08-08T15:29:22.721Z,101875.50
2022-08-08T15:32:03.795Z,101873.06
2022-08-08T15:34:40.663Z,101880.34
2022-08-08T15:37:08.054Z,101876.59
2022-08-08T15:39:39.856Z,101874.22
2022-08-08T15:42:18.161Z,101873.03
2022-08-08T15:44:58.862Z,101878.28
2022-08-08T15:47:26.169Z,101869.53
2022-08-08T15:49:53.417Z,101877.50
2022-08-08T15:52:22.811Z,101875.25
2022-08-08T15:54:52.730Z,101872.94
2022-08-08T15:57:21.655Z,101870.88
2022-08-08T16:00:25.242Z,101871.34
2022-08-08T16:02:37.560Z,101882.16
2022-08-08T16:05:13.887Z,101871.81
2022-08-08T16:07:51.402Z,101875.13
2022-08-08T16:13:09.455Z,101876.75
2022-08-08T16:13:29.808Z,101874.06
2022-08-08T16:15:57.552Z,101873.47
2022-08-08T16:18:30.344Z,101875.09
2022-08-08T16:21:00.724Z,101873.22
2022-08-08T16:23:31.556Z,101876.72
2022-08-08T16:26:04.161Z,101873.38
2022-08-08T16:28:35.144Z,101872.09
2022-08-08T16:31:07.978Z,101875.09
2022-08-08T16:33:39.429Z,101872.88
2022-08-08T16:36:12.841Z,101875.66
2022-08-08T16:38:47.170Z,101879.94
2022-08-08T16:41:20.126Z,101878.66
2022-08-08T16:43:50.638Z,101873.13
2022-08-08T16:46:42.781Z,101878.66
2022-08-08T16:49:09.464Z,101873.22
2022-08-08T16:55:01.104Z,101875.38
2022-08-08T16:55:03.427Z,101869.19
2022-08-08T16:57:22.711Z,101873.81
2022-08-08T16:59:52.525Z,101877.56
2022-08-08T17:02:33.576Z,101886.06
2022-08-08T17:05:07.952Z,101888.88
2022-08-08T17:07:37.527Z,101886.69
2022-08-08T17:10:06.820Z,101889.44
2022-08-08T17:12:36.425Z,101887.06
2022-08-08T17:15:17.189Z,101888.44
2022-08-08T17:18:02.292Z,101890.84
2022-08-08T17:20:32.683Z,101893.28
2022-08-08T17:23:16.597Z,101886.69
2022-08-08T17:25:53.686Z,101893.59
2022-08-08T17:28:30.728Z,101883.34
2022-08-08T17:31:39.023Z,101895.63
2022-08-08T17:34:48.603Z,101901.69
2022-08-08T17:37:00.114Z,101897.09
2022-08-08T17:40:02.890Z,101908.84
2022-08-08T17:42:15.868Z,101906.88
2022-08-08T17:44:45.922Z,101905.94
2022-08-08T17:47:23.315Z,101912.06
2022-08-08T17:49:52.951Z,101903.97
2022-08-08T17:52:28.143Z,101907.13
2022-08-08T17:54:56.016Z,101906.84
2022-08-08T17:57:24.843Z,101910.00
2022-08-08T17:59:58.870Z,101908.19
2022-08-08T18:02:29.925Z,101906.19
2022-08-08T18:05:04.532Z,101916.44
2022-08-08T18:08:03.414Z,101919.66
2022-08-08T18:10:31.254Z,101919.25
2022-08-08T18:13:01.867Z,101924.16
2022-08-08T18:15:31.389Z,101917.66
2022-08-08T18:18:09.215Z,101926.00
2022-08-08T18:20:55.076Z,101918.66
2022-08-08T18:23:26.586Z,101925.69
2022-08-08T18:25:53.698Z,101939.81
2022-08-08T18:28:24.311Z,101940.47
2022-08-08T18:30:52.612Z,101944.34
2022-08-08T18:33:19.976Z,101949.22
2022-08-08T18:36:11.502Z,101946.66
2022-08-08T18:38:50.322Z,101953.06
2022-08-08T18:41:19.267Z,101953.88
2022-08-08T18:44:06.095Z,101963.06
2022-08-08T18:46:54.554Z,101965.53
2022-08-08T18:49:40.795Z,101971.44
2022-08-08T18:52:18.457Z,101970.13
2022-08-08T18:54:59.196Z,101969.09
2022-08-08T18:57:31.493Z,101974.91
2022-08-08T19:00:10.698Z,101976.50
2022-08-08T19:02:48.394Z,101983.81
2022-08-08T19:05:34.152Z,101982.59
2022-08-08T19:08:24.446Z,101987.50
2022-08-08T19:10:55.937Z,101991.81
2022-08-08T19:13:24.433Z,101986.66
2022-08-08T19:15:55.862Z,101987.44
2022-08-08T19:18:32.633Z,101983.22
2022-08-08T19:21:29.401Z,101987.84
2022-08-08T19:23:58.452Z,101988.50
2022-08-08T19:26:29.984Z,101991.16
2022-08-08T19:28:58.911Z,101992.28
2022-08-08T19:31:31.685Z,101991.78
2022-08-08T19:34:36.408Z,101993.66
2022-08-08T19:36:59.299Z,101994.78
2022-08-08T19:39:30.701Z,101991.63
2022-08-08T19:42:02.565Z,101994.53
2022-08-08T19:44:45.860Z,101986.88
2022-08-08T19:47:14.587Z,101999.63
2022-08-08T19:49:43.387Z,101999.94
2022-08-08T19:52:35.493Z,102009.31
2022-08-08T19:55:12.329Z,102011.47
2022-08-08T19:57:42.510Z,102014.28
2022-08-08T20:00:32.964Z,102009.13
2022-08-08T20:03:14.602Z,102020.47
2022-08-08T20:06:13.539Z,102019.44
2022-08-08T20:08:33.299Z,102021.31
2022-08-08T20:11:01.377Z,102016.72
2022-08-08T20:14:33.086Z,102026.09
2022-08-08T20:16:20.172Z,102021.22
2022-08-08T20:18:53.172Z,102026.84
2022-08-08T20:21:25.243Z,102027.22
2022-08-08T20:23:58.167Z,102025.47
2022-08-08T20:26:30.203Z,102028.59
2022-08-08T20:29:04.756Z,102027.22
2022-08-08T20:32:07.277Z,102036.25
2022-08-08T20:34:29.370Z,102027.25
2022-08-08T20:37:00.423Z,102029.56
2022-08-08T20:39:39.231Z,102036.00
2022-08-08T20:42:16.455Z,102031.34
2022-08-08T20:44:43.512Z,102034.38
2022-08-08T20:47:22.756Z,102027.91
2022-08-08T20:49:54.165Z,102031.31
2022-08-08T20:52:25.209Z,102028.03
2022-08-08T20:54:52.265Z,102035.59
2022-08-08T20:57:21.082Z,102029.50
2022-08-08T20:59:49.332Z,102030.44
2022-08-08T21:02:25.808Z,102024.28
2022-08-08T21:05:00.717Z,102037.09
2022-08-08T21:07:47.901Z,102030.56
2022-08-08T21:10:17.973Z,102027.56
2022-08-08T21:12:54.551Z,102035.59
2022-08-08T21:16:06.320Z,102029.19
2022-08-08T21:18:09.244Z,102038.69
2022-08-08T21:20:39.316Z,102036.44
2022-08-08T21:23:10.048Z,102033.56
2022-08-08T21:25:40.671Z,102039.72
2022-08-08T21:28:14.935Z,102043.00
2022-08-08T21:30:49.468Z,102038.84
2022-08-08T21:33:20.652Z,102042.31
2022-08-08T21:36:17.270Z,102050.19
2022-08-08T21:38:35.467Z,102053.00
2022-08-08T21:41:02.555Z,102046.22
2022-08-08T21:43:33.055Z,102047.88
2022-08-08T21:48:05.193Z,102046.44
2022-08-08T21:48:53.272Z,102046.53
2022-08-08T21:54:17.077Z,102051.63
2022-08-08T21:54:32.112Z,102037.19
2022-08-08T21:57:03.156Z,102049.00
2022-08-08T22:00:01.751Z,102053.13
2022-08-08T22:02:23.554Z,102049.69
2022-08-08T22:04:59.217Z,102047.00
2022-08-08T22:07:34.816Z,102050.44
2022-08-08T22:12:46.983Z,102052.50
2022-08-08T22:15:14.131Z,102053.34
2022-08-08T22:17:45.474Z,102047.38
2022-08-08T22:20:18.769Z,102061.22
2022-08-08T22:22:52.629Z,102051.47
2022-08-08T22:25:25.252Z,102061.44
2022-08-08T22:28:03.496Z,102061.59
2022-08-08T22:30:33.520Z,102060.41
2022-08-08T22:33:03.421Z,102058.63
2022-08-08T22:36:05.178Z,102054.66
2022-08-08T22:38:48.968Z,102057.72
2022-08-08T22:41:21.511Z,102063.59
2022-08-08T22:44:02.616Z,102054.09
2022-08-08T22:46:39.805Z,102062.13
2022-08-08T22:49:10.360Z,102061.09
2022-08-08T22:51:42.415Z,102066.75
2022-08-08T22:54:30.811Z,102066.38
2022-08-08T22:57:11.552Z,102060.06
2022-08-08T22:59:48.328Z,102057.91
2022-08-08T23:02:28.910Z,102067.63
2022-08-08T23:04:56.439Z,102064.41
2022-08-08T23:07:51.351Z,102061.00
2022-08-08T23:10:21.090Z,102064.19
2022-08-08T23:12:51.582Z,102060.41
2022-08-08T23:16:42.156Z,102057.81
2022-08-08T23:18:11.949Z,102061.31
2022-08-08T23:20:43.191Z,102056.75
2022-08-08T23:23:13.889Z,102070.16
2022-08-08T23:25:47.872Z,102061.38
2022-08-08T23:28:18.627Z,102061.47
2022-08-08T23:30:47.504Z,102054.53
2022-08-08T23:33:35.714Z,102062.75
2022-08-08T23:36:08.170Z,102067.75
2022-08-08T23:38:44.040Z,102066.38
2022-08-08T23:41:22.835Z,102066.97
2022-08-08T23:43:56.646Z,102064.47
2022-08-08T23:49:02.235Z,102061.16
2022-08-08T23:49:14.607Z,102064.09
2022-08-08T23:52:04.996Z,102058.03
2022-08-08T23:54:43.799Z,102060.56
2022-08-08T23:57:27.796Z,102051.06
